sensor_id;sensor_type;location;lat;lon;timestamp;P1;durP1;ratioP1;P2;durP2;ratioP2
35418;SDS011;21525;41.240;16.500;2023-09-18T00:01:37;19.45;;;12.32;;
35418;SDS011;21525;41.240;16.500;2023-09-18T00:04:06;20.95;;;13.68;;
35418;SDS011;21525;41.240;16.500;2023-09-18T00:06:32;23.48;;;13.85;;
35418;SDS011;21525;41.240;16.500;2023-09-18T00:08:58;22.77;;;13.88;;
35418;SDS011;21525;41.240;16.500;2023-09-18T00:11:24;23.42;;;13.90;;
35418;SDS011;21525;41.240;16.500;2023-09-18T00:13:50;21.40;;;13.82;;
35418;SDS011;21525;41.240;16.500;2023-09-18T00:16:16;22.45;;;13.63;;
35418;SDS011;21525;41.240;16.500;2023-09-18T00:18:42;24.70;;;14.43;;
35418;SDS011;21525;41.240;16.500;2023-09-18T00:21:10;22.33;;;13.93;;
35418;SDS011;21525;41.240;16.500;2023-09-18T00:23:36;24.23;;;13.43;;
35418;SDS011;21525;41.240;16.500;2023-09-18T00:26:03;18.92;;;13.52;;
35418;SDS011;21525;41.240;16.500;2023-09-18T00:28:29;18.95;;;12.85;;
35418;SDS011;21525;41.240;16.500;2023-09-18T00:30:55;21.60;;;13.23;;
35418;SDS011;21525;41.240;16.500;2023-09-18T00:33:21;23.05;;;14.27;;
35418;SDS011;21525;41.240;16.500;2023-09-18T00:35:47;21.13;;;14.10;;
35418;SDS011;21525;41.240;16.500;2023-09-18T00:38:14;20.98;;;13.52;;
35418;SDS011;21525;41.240;16.500;2023-09-18T00:40:40;23.33;;;13.13;;
35418;SDS011;21525;41.240;16.500;2023-09-18T00:43:06;23.33;;;13.68;;
35418;SDS011;21525;41.240;16.500;2023-09-18T00:45:32;19.15;;;12.70;;
35418;SDS011;21525;41.240;16.500;2023-09-18T00:47:59;21.05;;;12.82;;
35418;SDS011;21525;41.240;16.500;2023-09-18T00:50:26;19.88;;;13.70;;
35418;SDS011;21525;41.240;16.500;2023-09-18T00:52:52;19.27;;;13.18;;
35418;SDS011;21525;41.240;16.500;2023-09-18T00:55:18;18.15;;;12.52;;
35418;SDS011;21525;41.240;16.500;2023-09-18T00:57:45;18.98;;;12.60;;
35418;SDS011;21525;41.240;16.500;2023-09-18T01:00:11;19.42;;;11.80;;
35418;SDS011;21525;41.240;16.500;2023-09-18T01:02:42;17.83;;;12.15;;
35418;SDS011;21525;41.240;16.500;2023-09-18T01:05:10;22.30;;;13.53;;
35418;SDS011;21525;41.240;16.500;2023-09-18T01:07:36;20.98;;;12.40;;
35418;SDS011;21525;41.240;16.500;2023-09-18T01:10:02;19.83;;;12.43;;
35418;SDS011;21525;41.240;16.500;2023-09-18T01:12:32;19.85;;;12.25;;
35418;SDS011;21525;41.240;16.500;2023-09-18T01:17:34;19.45;;;12.20;;
35418;SDS011;21525;41.240;16.500;2023-09-18T01:20:08;17.52;;;12.10;;
35418;SDS011;21525;41.240;16.500;2023-09-18T01:22:35;25.08;;;12.50;;
35418;SDS011;21525;41.240;16.500;2023-09-18T01:25:01;18.25;;;12.00;;
35418;SDS011;21525;41.240;16.500;2023-09-18T01:27:27;17.58;;;11.05;;
35418;SDS011;21525;41.240;16.500;2023-09-18T01:29:54;16.65;;;11.13;;
35418;SDS011;21525;41.240;16.500;2023-09-18T01:32:19;18.30;;;12.00;;
35418;SDS011;21525;41.240;16.500;2023-09-18T01:34:50;17.35;;;12.00;;
35418;SDS011;21525;41.240;16.500;2023-09-18T01:37:19;15.00;;;11.98;;
35418;SDS011;21525;41.240;16.500;2023-09-18T01:39:48;18.15;;;11.95;;
35418;SDS011;21525;41.240;16.500;2023-09-18T01:42:15;18.88;;;12.07;;
35418;SDS011;21525;41.240;16.500;2023-09-18T01:44:43;16.33;;;11.23;;
35418;SDS011;21525;41.240;16.500;2023-09-18T01:47:14;16.50;;;11.90;;
35418;SDS011;21525;41.240;16.500;2023-09-18T01:49:43;16.98;;;11.05;;
35418;SDS011;21525;41.240;16.500;2023-09-18T01:52:09;17.90;;;10.98;;
35418;SDS011;21525;41.240;16.500;2023-09-18T01:54:35;17.75;;;11.13;;
35418;SDS011;21525;41.240;16.500;2023-09-18T01:57:01;18.00;;;11.05;;
35418;SDS011;21525;41.240;16.500;2023-09-18T01:59:28;16.77;;;11.52;;
35418;SDS011;21525;41.240;16.500;2023-09-18T02:01:54;20.35;;;11.73;;
35418;SDS011;21525;41.240;16.500;2023-09-18T02:04:20;19.85;;;12.32;;
35418;SDS011;21525;41.240;16.500;2023-09-18T02:06:48;15.73;;;11.93;;
35418;SDS011;21525;41.240;16.500;2023-09-18T02:09:16;15.85;;;10.02;;
35418;SDS011;21525;41.240;16.500;2023-09-18T02:11:43;17.08;;;11.18;;
35418;SDS011;21525;41.240;16.500;2023-09-18T02:14:10;16.30;;;10.70;;
35418;SDS011;21525;41.240;16.500;2023-09-18T02:16:37;16.17;;;10.75;;
35418;SDS011;21525;41.240;16.500;2023-09-18T02:19:09;17.60;;;10.10;;
35418;SDS011;21525;41.240;16.500;2023-09-18T02:21:42;17.50;;;11.02;;
35418;SDS011;21525;41.240;16.500;2023-09-18T02:24:09;17.67;;;10.95;;
35418;SDS011;21525;41.240;16.500;2023-09-18T02:26:34;19.00;;;10.73;;
35418;SDS011;21525;41.240;16.500;2023-09-18T02:29:02;12.93;;;9.48;;
35418;SDS011;21525;41.240;16.500;2023-09-18T02:31:29;14.95;;;10.10;;
35418;SDS011;21525;41.240;16.500;2023-09-18T02:33:55;23.35;;;10.63;;
35418;SDS011;21525;41.240;16.500;2023-09-18T02:36:21;15.95;;;10.02;;
35418;SDS011;21525;41.240;16.500;2023-09-18T02:38:48;19.63;;;10.00;;
35418;SDS011;21525;41.240;16.500;2023-09-18T02:41:14;16.50;;;9.85;;
35418;SDS011;21525;41.240;16.500;2023-09-18T02:43:40;13.98;;;9.40;;
35418;SDS011;21525;41.240;16.500;2023-09-18T02:46:05;16.80;;;8.88;;
35418;SDS011;21525;41.240;16.500;2023-09-18T02:48:34;15.95;;;9.20;;
35418;SDS011;21525;41.240;16.500;2023-09-18T02:51:00;15.98;;;9.40;;
35418;SDS011;21525;41.240;16.500;2023-09-18T02:53:26;13.88;;;9.32;;
35418;SDS011;21525;41.240;16.500;2023-09-18T02:55:54;13.63;;;9.10;;
35418;SDS011;21525;41.240;16.500;2023-09-18T02:58:22;18.20;;;9.18;;
35418;SDS011;21525;41.240;16.500;2023-09-18T03:00:51;13.93;;;8.15;;
35418;SDS011;21525;41.240;16.500;2023-09-18T03:03:17;14.10;;;8.82;;
35418;SDS011;21525;41.240;16.500;2023-09-18T03:05:43;14.70;;;9.07;;
35418;SDS011;21525;41.240;16.500;2023-09-18T03:08:13;16.50;;;9.43;;
35418;SDS011;21525;41.240;16.500;2023-09-18T03:10:41;15.65;;;8.95;;
35418;SDS011;21525;41.240;16.500;2023-09-18T03:13:08;15.10;;;8.88;;
35418;SDS011;21525;41.240;16.500;2023-09-18T03:15:35;16.70;;;9.00;;
35418;SDS011;21525;41.240;16.500;2023-09-18T03:18:02;15.25;;;9.70;;
35418;SDS011;21525;41.240;16.500;2023-09-18T03:20:30;13.88;;;9.05;;
35418;SDS011;21525;41.240;16.500;2023-09-18T03:22:57;16.10;;;9.38;;
35418;SDS011;21525;41.240;16.500;2023-09-18T03:25:25;14.35;;;10.05;;
35418;SDS011;21525;41.240;16.500;2023-09-18T03:27:51;12.98;;;8.93;;
35418;SDS011;21525;41.240;16.500;2023-09-18T03:30:19;13.23;;;9.32;;
35418;SDS011;21525;41.240;16.500;2023-09-18T03:32:46;17.08;;;9.48;;
35418;SDS011;21525;41.240;16.500;2023-09-18T03:35:14;16.40;;;9.40;;
35418;SDS011;21525;41.240;16.500;2023-09-18T03:37:47;15.75;;;9.27;;
35418;SDS011;21525;41.240;16.500;2023-09-18T03:40:19;17.08;;;10.23;;
35418;SDS011;21525;41.240;16.500;2023-09-18T03:42:46;18.58;;;9.65;;
35418;SDS011;21525;41.240;16.500;2023-09-18T03:45:13;16.38;;;11.75;;
35418;SDS011;21525;41.240;16.500;2023-09-18T03:47:39;15.05;;;11.43;;
35418;SDS011;21525;41.240;16.500;2023-09-18T03:50:07;16.08;;;11.43;;
35418;SDS011;21525;41.240;16.500;2023-09-18T03:52:34;13.27;;;10.45;;
35418;SDS011;21525;41.240;16.500;2023-09-18T03:54:59;13.70;;;9.35;;
35418;SDS011;21525;41.240;16.500;2023-09-18T03:57:25;17.30;;;9.50;;
35418;SDS011;21525;41.240;16.500;2023-09-18T03:59:51;16.40;;;9.70;;
35418;SDS011;21525;41.240;16.500;2023-09-18T04:02:17;16.42;;;10.02;;
35418;SDS011;21525;41.240;16.500;2023-09-18T04:04:42;13.85;;;10.05;;
35418;SDS011;21525;41.240;16.500;2023-09-18T04:07:08;14.07;;;10.85;;
35418;SDS011;21525;41.240;16.500;2023-09-18T04:09:34;13.98;;;9.35;;
35418;SDS011;21525;41.240;16.500;2023-09-18T04:12:03;13.80;;;8.93;;
35418;SDS011;21525;41.240;16.500;2023-09-18T04:14:33;17.92;;;10.45;;
35418;SDS011;21525;41.240;16.500;2023-09-18T04:16:59;19.05;;;11.27;;
35418;SDS011;21525;41.240;16.500;2023-09-18T04:19:26;19.70;;;11.75;;
35418;SDS011;21525;41.240;16.500;2023-09-18T04:21:52;20.38;;;10.65;;
35418;SDS011;21525;41.240;16.500;2023-09-18T04:24:18;15.85;;;10.27;;
35418;SDS011;21525;41.240;16.500;2023-09-18T04:26:44;16.92;;;10.27;;
35418;SDS011;21525;41.240;16.500;2023-09-18T04:29:09;16.27;;;10.10;;
35418;SDS011;21525;41.240;16.500;2023-09-18T04:31:35;16.92;;;9.88;;
35418;SDS011;21525;41.240;16.500;2023-09-18T04:34:01;15.38;;;10.10;;
35418;SDS011;21525;41.240;16.500;2023-09-18T04:36:28;22.17;;;10.70;;
35418;SDS011;21525;41.240;16.500;2023-09-18T04:38:54;16.45;;;10.88;;
35418;SDS011;21525;41.240;16.500;2023-09-18T04:41:20;20.83;;;10.68;;
35418;SDS011;21525;41.240;16.500;2023-09-18T04:43:45;19.73;;;11.73;;
35418;SDS011;21525;41.240;16.500;2023-09-18T04:46:11;16.70;;;10.93;;
35418;SDS011;21525;41.240;16.500;2023-09-18T04:48:38;18.20;;;10.93;;
35418;SDS011;21525;41.240;16.500;2023-09-18T04:51:05;21.25;;;11.65;;
35418;SDS011;21525;41.240;16.500;2023-09-18T04:53:31;19.08;;;10.73;;
35418;SDS011;21525;41.240;16.500;2023-09-18T04:55:58;24.10;;;11.68;;
35418;SDS011;21525;41.240;16.500;2023-09-18T04:58:24;17.35;;;11.07;;
35418;SDS011;21525;41.240;16.500;2023-09-18T05:00:54;26.48;;;11.57;;
35418;SDS011;21525;41.240;16.500;2023-09-18T05:03:24;20.80;;;10.82;;
35418;SDS011;21525;41.240;16.500;2023-09-18T05:05:52;20.33;;;11.07;;
35418;SDS011;21525;41.240;16.500;2023-09-18T05:08:18;23.52;;;12.48;;
35418;SDS011;21525;41.240;16.500;2023-09-18T05:10:44;23.60;;;12.70;;
35418;SDS011;21525;41.240;16.500;2023-09-18T05:13:11;25.10;;;11.90;;
35418;SDS011;21525;41.240;16.500;2023-09-18T05:15:37;20.90;;;10.68;;
35418;SDS011;21525;41.240;16.500;2023-09-18T05:18:03;17.15;;;10.50;;
35418;SDS011;21525;41.240;16.500;2023-09-18T05:20:29;23.33;;;10.77;;
35418;SDS011;21525;41.240;16.500;2023-09-18T05:22:56;20.92;;;11.32;;
35418;SDS011;21525;41.240;16.500;2023-09-18T05:25:27;25.17;;;11.02;;
35418;SDS011;21525;41.240;16.500;2023-09-18T05:27:56;20.90;;;10.88;;
35418;SDS011;21525;41.240;16.500;2023-09-18T05:30:26;20.17;;;11.33;;
35418;SDS011;21525;41.240;16.500;2023-09-18T05:32:54;29.60;;;13.30;;
35418;SDS011;21525;41.240;16.500;2023-09-18T05:35:20;26.17;;;13.25;;
35418;SDS011;21525;41.240;16.500;2023-09-18T05:37:46;33.60;;;12.95;;
35418;SDS011;21525;41.240;16.500;2023-09-18T05:40:13;24.70;;;12.88;;
35418;SDS011;21525;41.240;16.500;2023-09-18T05:42:42;25.23;;;12.52;;
35418;SDS011;21525;41.240;16.500;2023-09-18T05:45:09;26.23;;;12.23;;
35418;SDS011;21525;41.240;16.500;2023-09-18T05:47:36;24.73;;;12.35;;
35418;SDS011;21525;41.240;16.500;2023-09-18T05:50:06;28.83;;;13.38;;
35418;SDS011;21525;41.240;16.500;2023-09-18T05:52:33;36.88;;;13.63;;
35418;SDS011;21525;41.240;16.500;2023-09-18T05:54:59;61.15;;;15.00;;
35418;SDS011;21525;41.240;16.500;2023-09-18T05:57:26;50.47;;;15.52;;
35418;SDS011;21525;41.240;16.500;2023-09-18T05:59:54;27.20;;;13.98;;
35418;SDS011;21525;41.240;16.500;2023-09-18T06:02:21;25.83;;;12.52;;
35418;SDS011;21525;41.240;16.500;2023-09-18T06:04:47;23.25;;;11.30;;
35418;SDS011;21525;41.240;16.500;2023-09-18T06:07:12;39.60;;;13.68;;
35418;SDS011;21525;41.240;16.500;2023-09-18T06:09:38;29.67;;;12.00;;
35418;SDS011;21525;41.240;16.500;2023-09-18T06:12:05;18.95;;;12.02;;
35418;SDS011;21525;41.240;16.500;2023-09-18T06:14:31;32.60;;;13.43;;
35418;SDS011;21525;41.240;16.500;2023-09-18T06:17:00;26.98;;;12.18;;
35418;SDS011;21525;41.240;16.500;2023-09-18T06:19:27;28.13;;;12.68;;
35418;SDS011;21525;41.240;16.500;2023-09-18T06:21:53;30.95;;;12.50;;
35418;SDS011;21525;41.240;16.500;2023-09-18T06:24:18;33.88;;;12.95;;
35418;SDS011;21525;41.240;16.500;2023-09-18T06:26:44;35.85;;;13.10;;
35418;SDS011;21525;41.240;16.500;2023-09-18T06:29:10;32.33;;;12.00;;
35418;SDS011;21525;41.240;16.500;2023-09-18T06:31:36;31.52;;;11.65;;
35418;SDS011;21525;41.240;16.500;2023-09-18T06:34:01;30.95;;;11.05;;
35418;SDS011;21525;41.240;16.500;2023-09-18T06:36:27;30.23;;;12.30;;
35418;SDS011;21525;41.240;16.500;2023-09-18T06:38:53;28.23;;;10.32;;
35418;SDS011;21525;41.240;16.500;2023-09-18T06:41:19;30.83;;;11.98;;
35418;SDS011;21525;41.240;16.500;2023-09-18T06:43:44;24.73;;;10.27;;
35418;SDS011;21525;41.240;16.500;2023-09-18T06:46:10;30.30;;;11.65;;
35418;SDS011;21525;41.240;16.500;2023-09-18T06:48:36;28.05;;;11.45;;
35418;SDS011;21525;41.240;16.500;2023-09-18T06:51:02;26.88;;;11.13;;
35418;SDS011;21525;41.240;16.500;2023-09-18T06:53:28;31.33;;;12.52;;
35418;SDS011;21525;41.240;16.500;2023-09-18T06:55:54;29.80;;;10.88;;
35418;SDS011;21525;41.240;16.500;2023-09-18T06:58:20;23.67;;;11.90;;
35418;SDS011;21525;41.240;16.500;2023-09-18T07:00:46;24.77;;;10.77;;
35418;SDS011;21525;41.240;16.500;2023-09-18T07:03:12;23.92;;;10.35;;
35418;SDS011;21525;41.240;16.500;2023-09-18T07:05:41;22.17;;;10.75;;
35418;SDS011;21525;41.240;16.500;2023-09-18T07:08:08;20.98;;;9.77;;
35418;SDS011;21525;41.240;16.500;2023-09-18T07:10:37;24.95;;;10.80;;
35418;SDS011;21525;41.240;16.500;2023-09-18T07:13:03;26.90;;;11.95;;
35418;SDS011;21525;41.240;16.500;2023-09-18T07:15:29;22.30;;;11.02;;
35418;SDS011;21525;41.240;16.500;2023-09-18T07:17:55;34.15;;;12.18;;
35418;SDS011;21525;41.240;16.500;2023-09-18T07:20:21;23.98;;;11.52;;
35418;SDS011;21525;41.240;16.500;2023-09-18T07:22:49;29.30;;;15.73;;
35418;SDS011;21525;41.240;16.500;2023-09-18T07:25:16;41.70;;;19.13;;
35418;SDS011;21525;41.240;16.500;2023-09-18T07:27:42;33.33;;;17.17;;
35418;SDS011;21525;41.240;16.500;2023-09-18T07:30:11;33.92;;;17.77;;
35418;SDS011;21525;41.240;16.500;2023-09-18T07:32:41;42.60;;;18.13;;
35418;SDS011;21525;41.240;16.500;2023-09-18T07:35:07;28.27;;;16.40;;
35418;SDS011;21525;41.240;16.500;2023-09-18T07:37:33;37.35;;;18.80;;
35418;SDS011;21525;41.240;16.500;2023-09-18T07:40:00;31.75;;;18.55;;
35418;SDS011;21525;41.240;16.500;2023-09-18T07:42:26;36.80;;;20.25;;
35418;SDS011;21525;41.240;16.500;2023-09-18T07:44:52;29.67;;;18.63;;
35418;SDS011;21525;41.240;16.500;2023-09-18T07:47:19;41.20;;;21.30;;
35418;SDS011;21525;41.240;16.500;2023-09-18T07:49:46;39.25;;;20.00;;
35418;SDS011;21525;41.240;16.500;2023-09-18T07:52:12;32.00;;;17.70;;
35418;SDS011;21525;41.240;16.500;2023-09-18T07:54:38;25.73;;;17.48;;
35418;SDS011;21525;41.240;16.500;2023-09-18T07:57:04;28.45;;;15.15;;
35418;SDS011;21525;41.240;16.500;2023-09-18T07:59:29;28.55;;;16.38;;
35418;SDS011;21525;41.240;16.500;2023-09-18T08:01:55;23.00;;;15.32;;
35418;SDS011;21525;41.240;16.500;2023-09-18T08:04:21;23.05;;;15.02;;
35418;SDS011;21525;41.240;16.500;2023-09-18T08:06:47;22.02;;;13.90;;
35418;SDS011;21525;41.240;16.500;2023-09-18T08:09:13;17.40;;;12.07;;
35418;SDS011;21525;41.240;16.500;2023-09-18T08:11:44;15.90;;;11.30;;
35418;SDS011;21525;41.240;16.500;2023-09-18T08:14:09;16.90;;;12.40;;
35418;SDS011;21525;41.240;16.500;2023-09-18T08:16:37;16.20;;;11.27;;
35418;SDS011;21525;41.240;16.500;2023-09-18T08:19:04;15.05;;;10.98;;
35418;SDS011;21525;41.240;16.500;2023-09-18T08:21:30;13.63;;;10.50;;
35418;SDS011;21525;41.240;16.500;2023-09-18T08:23:55;13.10;;;9.65;;
35418;SDS011;21525;41.240;16.500;2023-09-18T08:26:21;16.20;;;10.32;;
35418;SDS011;21525;41.240;16.500;2023-09-18T08:28:48;13.57;;;10.63;;
35418;SDS011;21525;41.240;16.500;2023-09-18T08:31:14;14.32;;;10.35;;
35418;SDS011;21525;41.240;16.500;2023-09-18T08:33:42;17.67;;;11.88;;
35418;SDS011;21525;41.240;16.500;2023-09-18T08:36:08;19.70;;;12.98;;
35418;SDS011;21525;41.240;16.500;2023-09-18T08:38:34;19.80;;;12.85;;
35418;SDS011;21525;41.240;16.500;2023-09-18T08:41:00;20.00;;;13.35;;
35418;SDS011;21525;41.240;16.500;2023-09-18T08:43:26;17.33;;;13.10;;
35418;SDS011;21525;41.240;16.500;2023-09-18T08:45:54;22.63;;;12.25;;
35418;SDS011;21525;41.240;16.500;2023-09-18T08:48:27;13.98;;;11.20;;
35418;SDS011;21525;41.240;16.500;2023-09-18T08:51:03;16.92;;;11.32;;
35418;SDS011;21525;41.240;16.500;2023-09-18T08:53:31;17.88;;;11.07;;
35418;SDS011;21525;41.240;16.500;2023-09-18T08:56:01;16.83;;;10.15;;
35418;SDS011;21525;41.240;16.500;2023-09-18T08:58:36;17.45;;;10.10;;
35418;SDS011;21525;41.240;16.500;2023-09-18T09:01:05;15.85;;;10.55;;
35418;SDS011;21525;41.240;16.500;2023-09-18T09:03:36;14.88;;;9.52;;
35418;SDS011;21525;41.240;16.500;2023-09-18T09:06:02;12.35;;;9.00;;
35418;SDS011;21525;41.240;16.500;2023-09-18T09:08:28;15.25;;;9.82;;
35418;SDS011;21525;41.240;16.500;2023-09-18T09:10:54;12.25;;;8.65;;
35418;SDS011;21525;41.240;16.500;2023-09-18T09:15:52;14.98;;;9.85;;
35418;SDS011;21525;41.240;16.500;2023-09-18T09:18:21;12.93;;;8.35;;
35418;SDS011;21525;41.240;16.500;2023-09-18T09:20:55;14.57;;;8.50;;
35418;SDS011;21525;41.240;16.500;2023-09-18T09:23:25;14.05;;;9.20;;
35418;SDS011;21525;41.240;16.500;2023-09-18T09:25:52;12.32;;;8.23;;
35418;SDS011;21525;41.240;16.500;2023-09-18T09:28:28;18.83;;;8.95;;
35418;SDS011;21525;41.240;16.500;2023-09-18T09:31:02;12.77;;;8.83;;
35418;SDS011;21525;41.240;16.500;2023-09-18T09:33:29;12.13;;;9.40;;
35418;SDS011;21525;41.240;16.500;2023-09-18T09:35:56;13.40;;;8.88;;
35418;SDS011;21525;41.240;16.500;2023-09-18T09:38:32;11.15;;;8.32;;
35418;SDS011;21525;41.240;16.500;2023-09-18T09:41:02;14.50;;;8.63;;
35418;SDS011;21525;41.240;16.500;2023-09-18T09:43:35;14.52;;;9.23;;
35418;SDS011;21525;41.240;16.500;2023-09-18T09:46:01;14.15;;;8.95;;
35418;SDS011;21525;41.240;16.500;2023-09-18T09:48:27;13.02;;;8.38;;
35418;SDS011;21525;41.240;16.500;2023-09-18T09:50:59;11.32;;;8.32;;
35418;SDS011;21525;41.240;16.500;2023-09-18T09:53:42;16.20;;;10.07;;
35418;SDS011;21525;41.240;16.500;2023-09-18T09:56:18;13.48;;;8.55;;
35418;SDS011;21525;41.240;16.500;2023-09-18T09:58:44;14.00;;;7.63;;
35418;SDS011;21525;41.240;16.500;2023-09-18T10:01:25;12.02;;;7.75;;
35418;SDS011;21525;41.240;16.500;2023-09-18T10:03:53;13.23;;;7.97;;
35418;SDS011;21525;41.240;16.500;2023-09-18T10:06:21;11.20;;;7.72;;
35418;SDS011;21525;41.240;16.500;2023-09-18T10:08:47;9.43;;;6.43;;
35418;SDS011;21525;41.240;16.500;2023-09-18T10:11:13;10.10;;;6.38;;
35418;SDS011;21525;41.240;16.500;2023-09-18T10:13:51;13.13;;;7.25;;
35418;SDS011;21525;41.240;16.500;2023-09-18T10:16:22;10.65;;;6.40;;
35418;SDS011;21525;41.240;16.500;2023-09-18T10:26:51;11.63;;;7.13;;
35418;SDS011;21525;41.240;16.500;2023-09-18T10:31:50;13.98;;;6.85;;
35418;SDS011;21525;41.240;16.500;2023-09-18T10:34:17;12.52;;;7.15;;
35418;SDS011;21525;41.240;16.500;2023-09-18T10:36:46;13.32;;;7.28;;
35418;SDS011;21525;41.240;16.500;2023-09-18T10:39:12;10.00;;;5.72;;
35418;SDS011;21525;41.240;16.500;2023-09-18T10:41:38;11.93;;;6.80;;
35418;SDS011;21525;41.240;16.500;2023-09-18T10:44:07;12.48;;;6.95;;
35418;SDS011;21525;41.240;16.500;2023-09-18T10:46:33;9.10;;;5.55;;
35418;SDS011;21525;41.240;16.500;2023-09-18T10:48:59;12.52;;;6.47;;
35418;SDS011;21525;41.240;16.500;2023-09-18T10:51:26;14.55;;;6.97;;
35418;SDS011;21525;41.240;16.500;2023-09-18T10:53:56;9.63;;;5.20;;
35418;SDS011;21525;41.240;16.500;2023-09-18T10:56:22;10.77;;;5.30;;
35418;SDS011;21525;41.240;16.500;2023-09-18T10:58:55;8.70;;;5.00;;
35418;SDS011;21525;41.240;16.500;2023-09-18T11:01:23;9.75;;;5.47;;
35418;SDS011;21525;41.240;16.500;2023-09-18T11:03:52;9.38;;;5.25;;
35418;SDS011;21525;41.240;16.500;2023-09-18T11:06:24;8.93;;;5.75;;
35418;SDS011;21525;41.240;16.500;2023-09-18T11:08:53;9.90;;;5.78;;
35418;SDS011;21525;41.240;16.500;2023-09-18T11:11:27;11.07;;;6.05;;
35418;SDS011;21525;41.240;16.500;2023-09-18T11:13:55;13.30;;;6.18;;
35418;SDS011;21525;41.240;16.500;2023-09-18T11:18:54;11.32;;;7.28;;
35418;SDS011;21525;41.240;16.500;2023-09-18T11:21:33;11.65;;;7.30;;
35418;SDS011;21525;41.240;16.500;2023-09-18T11:24:00;10.88;;;6.65;;
35418;SDS011;21525;41.240;16.500;2023-09-18T11:26:29;14.35;;;7.82;;
35418;SDS011;21525;41.240;16.500;2023-09-18T11:29:00;11.90;;;7.07;;
35418;SDS011;21525;41.240;16.500;2023-09-18T11:36:58;12.70;;;6.78;;
35418;SDS011;21525;41.240;16.500;2023-09-18T11:44:41;10.40;;;6.43;;
35418;SDS011;21525;41.240;16.500;2023-09-18T11:47:12;9.30;;;6.20;;
35418;SDS011;21525;41.240;16.500;2023-09-18T11:49:49;9.40;;;6.28;;
35418;SDS011;21525;41.240;16.500;2023-09-18T11:52:24;11.25;;;6.43;;
35418;SDS011;21525;41.240;16.500;2023-09-18T11:54:57;11.18;;;6.88;;
35418;SDS011;21525;41.240;16.500;2023-09-18T11:57:24;10.63;;;6.50;;
35418;SDS011;21525;41.240;16.500;2023-09-18T11:59:50;9.73;;;6.22;;
35418;SDS011;21525;41.240;16.500;2023-09-18T12:02:26;11.07;;;6.20;;
35418;SDS011;21525;41.240;16.500;2023-09-18T12:04:53;9.07;;;5.85;;
35418;SDS011;21525;41.240;16.500;2023-09-18T12:07:20;9.77;;;5.90;;
35418;SDS011;21525;41.240;16.500;2023-09-18T12:09:46;13.02;;;6.55;;
35418;SDS011;21525;41.240;16.500;2023-09-18T12:12:12;11.43;;;6.22;;
35418;SDS011;21525;41.240;16.500;2023-09-18T12:17:13;11.02;;;5.93;;
35418;SDS011;21525;41.240;16.500;2023-09-18T12:19:49;9.75;;;5.82;;
35418;SDS011;21525;41.240;16.500;2023-09-18T12:22:29;13.25;;;6.20;;
35418;SDS011;21525;41.240;16.500;2023-09-18T12:25:12;13.05;;;6.22;;
35418;SDS011;21525;41.240;16.500;2023-09-18T12:27:39;11.48;;;6.65;;
35418;SDS011;21525;41.240;16.500;2023-09-18T12:30:06;12.73;;;6.20;;
35418;SDS011;21525;41.240;16.500;2023-09-18T12:32:35;9.93;;;6.13;;
35418;SDS011;21525;41.240;16.500;2023-09-18T12:35:02;10.95;;;6.15;;
35418;SDS011;21525;41.240;16.500;2023-09-18T12:37:32;9.20;;;6.13;;
35418;SDS011;21525;41.240;16.500;2023-09-18T12:39:59;13.60;;;6.28;;
35418;SDS011;21525;41.240;16.500;2023-09-18T12:42:25;9.73;;;6.70;;
35418;SDS011;21525;41.240;16.500;2023-09-18T12:44:52;13.63;;;7.28;;
35418;SDS011;21525;41.240;16.500;2023-09-18T12:47:18;13.70;;;7.80;;
35418;SDS011;21525;41.240;16.500;2023-09-18T12:49:44;10.77;;;6.75;;
35418;SDS011;21525;41.240;16.500;2023-09-18T12:52:10;12.40;;;7.18;;
35418;SDS011;21525;41.240;16.500;2023-09-18T12:54:39;9.98;;;6.55;;
35418;SDS011;21525;41.240;16.500;2023-09-18T12:57:06;11.60;;;6.72;;
35418;SDS011;21525;41.240;16.500;2023-09-18T12:59:34;12.88;;;6.18;;
35418;SDS011;21525;41.240;16.500;2023-09-18T13:02:01;14.45;;;6.53;;
35418;SDS011;21525;41.240;16.500;2023-09-18T13:04:30;10.75;;;6.35;;
35418;SDS011;21525;41.240;16.500;2023-09-18T13:07:10;15.25;;;6.68;;
35418;SDS011;21525;41.240;16.500;2023-09-18T13:09:37;10.68;;;7.10;;
35418;SDS011;21525;41.240;16.500;2023-09-18T13:12:03;12.50;;;7.05;;
35418;SDS011;21525;41.240;16.500;2023-09-18T13:14:49;13.82;;;6.95;;
35418;SDS011;21525;41.240;16.500;2023-09-18T13:17:38;12.52;;;6.63;;
35418;SDS011;21525;41.240;16.500;2023-09-18T13:20:11;10.45;;;5.90;;
35418;SDS011;21525;41.240;16.500;2023-09-18T13:22:38;10.80;;;6.45;;
35418;SDS011;21525;41.240;16.500;2023-09-18T13:25:06;12.30;;;6.43;;
35418;SDS011;21525;41.240;16.500;2023-09-18T13:27:33;11.85;;;7.75;;
35418;SDS011;21525;41.240;16.500;2023-09-18T13:29:59;15.23;;;7.60;;
35418;SDS011;21525;41.240;16.500;2023-09-18T13:32:37;11.02;;;6.82;;
35418;SDS011;21525;41.240;16.500;2023-09-18T13:35:04;12.20;;;6.72;;
35418;SDS011;21525;41.240;16.500;2023-09-18T13:37:33;13.93;;;7.00;;
35418;SDS011;21525;41.240;16.500;2023-09-18T13:40:00;12.82;;;7.68;;
35418;SDS011;21525;41.240;16.500;2023-09-18T13:42:31;10.85;;;6.65;;
35418;SDS011;21525;41.240;16.500;2023-09-18T13:44:58;14.63;;;7.10;;
35418;SDS011;21525;41.240;16.500;2023-09-18T13:47:27;8.90;;;6.35;;
35418;SDS011;21525;41.240;16.500;2023-09-18T13:49:53;11.85;;;6.95;;
35418;SDS011;21525;41.240;16.500;2023-09-18T13:54:48;8.77;;;6.32;;
35418;SDS011;21525;41.240;16.500;2023-09-18T13:57:17;8.60;;;6.18;;
35418;SDS011;21525;41.240;16.500;2023-09-18T13:59:44;13.48;;;7.55;;
35418;SDS011;21525;41.240;16.500;2023-09-18T14:02:11;10.15;;;7.07;;
35418;SDS011;21525;41.240;16.500;2023-09-18T14:04:37;16.25;;;7.10;;
35418;SDS011;21525;41.240;16.500;2023-09-18T14:07:04;15.98;;;6.80;;
35418;SDS011;21525;41.240;16.500;2023-09-18T14:09:30;11.65;;;6.55;;
35418;SDS011;21525;41.240;16.500;2023-09-18T14:11:56;11.82;;;7.03;;
35418;SDS011;21525;41.240;16.500;2023-09-18T14:14:22;9.77;;;6.68;;
35418;SDS011;21525;41.240;16.500;2023-09-18T14:16:49;13.30;;;6.88;;
35418;SDS011;21525;41.240;16.500;2023-09-18T14:19:19;11.65;;;6.72;;
35418;SDS011;21525;41.240;16.500;2023-09-18T14:21:45;12.95;;;6.05;;
35418;SDS011;21525;41.240;16.500;2023-09-18T14:24:12;10.93;;;7.00;;
35418;SDS011;21525;41.240;16.500;2023-09-18T14:26:37;11.93;;;6.95;;
35418;SDS011;21525;41.240;16.500;2023-09-18T14:29:09;12.70;;;6.25;;
35418;SDS011;21525;41.240;16.500;2023-09-18T14:31:36;10.95;;;6.45;;
35418;SDS011;21525;41.240;16.500;2023-09-18T14:34:02;11.50;;;6.55;;
35418;SDS011;21525;41.240;16.500;2023-09-18T14:36:34;10.57;;;6.53;;
35418;SDS011;21525;41.240;16.500;2023-09-18T14:39:01;9.02;;;5.90;;
35418;SDS011;21525;41.240;16.500;2023-09-18T14:41:29;10.25;;;6.50;;
35418;SDS011;21525;41.240;16.500;2023-09-18T14:43:57;10.38;;;5.82;;
35418;SDS011;21525;41.240;16.500;2023-09-18T14:46:24;10.85;;;6.05;;
35418;SDS011;21525;41.240;16.500;2023-09-18T14:48:50;9.77;;;6.05;;
35418;SDS011;21525;41.240;16.500;2023-09-18T14:51:16;10.85;;;5.50;;
35418;SDS011;21525;41.240;16.500;2023-09-18T14:53:42;12.82;;;6.35;;